sensor_id;sensor_type;location;lat;lon;timestamp;P1;durP1;ratioP1;P2;durP2;ratioP2
20080;SDS011;10200;49.232;9.222;2023-12-04T00:01:13;21.73;;;13.40;;
20080;SDS011;10200;49.232;9.222;2023-12-04T00:03:40;23.70;;;14.57;;
20080;SDS011;10200;49.232;9.222;2023-12-04T00:06:05;22.83;;;14.17;;
20080;SDS011;10200;49.232;9.222;2023-12-04T00:08:32;25.47;;;14.20;;
20080;SDS011;10200;49.232;9.222;2023-12-04T00:10:59;19.93;;;12.67;;
20080;SDS011;10200;49.232;9.222;2023-12-04T00:13:24;23.43;;;13.47;;
20080;SDS011;10200;49.232;9.222;2023-12-04T00:15:50;25.43;;;15.10;;
20080;SDS011;10200;49.232;9.222;2023-12-04T00:18:16;21.60;;;13.10;;
20080;SDS011;10200;49.232;9.222;2023-12-04T00:20:41;21.97;;;13.60;;
20080;SDS011;10200;49.232;9.222;2023-12-04T00:23:07;22.47;;;13.53;;
20080;SDS011;10200;49.232;9.222;2023-12-04T00:25:32;21.17;;;12.67;;
20080;SDS011;10200;49.232;9.222;2023-12-04T00:27:58;21.70;;;12.47;;
20080;SDS011;10200;49.232;9.222;2023-12-04T00:30:24;24.40;;;13.53;;
20080;SDS011;10200;49.232;9.222;2023-12-04T00:32:49;21.70;;;13.13;;
20080;SDS011;10200;49.232;9.222;2023-12-04T00:35:16;21.63;;;12.30;;
20080;SDS011;10200;49.232;9.222;2023-12-04T00:37:42;23.30;;;13.93;;
20080;SDS011;10200;49.232;9.222;2023-12-04T00:40:07;21.20;;;12.83;;
20080;SDS011;10200;49.232;9.222;2023-12-04T00:42:33;25.67;;;14.90;;
20080;SDS011;10200;49.232;9.222;2023-12-04T00:44:59;23.77;;;14.17;;
20080;SDS011;10200;49.232;9.222;2023-12-04T00:47:25;22.83;;;13.47;;
20080;SDS011;10200;49.232;9.222;2023-12-04T00:49:51;19.70;;;13.13;;
20080;SDS011;10200;49.232;9.222;2023-12-04T00:52:16;20.87;;;12.70;;
20080;SDS011;10200;49.232;9.222;2023-12-04T00:54:42;19.73;;;13.10;;
20080;SDS011;10200;49.232;9.222;2023-12-04T00:57:08;22.70;;;14.13;;
20080;SDS011;10200;49.232;9.222;2023-12-04T00:59:34;21.77;;;13.73;;
20080;SDS011;10200;49.232;9.222;2023-12-04T01:02:00;21.50;;;13.00;;
20080;SDS011;10200;49.232;9.222;2023-12-04T01:04:25;21.87;;;13.07;;
20080;SDS011;10200;49.232;9.222;2023-12-04T01:06:51;23.63;;;14.53;;
20080;SDS011;10200;49.232;9.222;2023-12-04T01:09:17;20.47;;;13.13;;
20080;SDS011;10200;49.232;9.222;2023-12-04T01:11:43;21.20;;;13.13;;
20080;SDS011;10200;49.232;9.222;2023-12-04T01:14:09;21.77;;;13.43;;
20080;SDS011;10200;49.232;9.222;2023-12-04T01:16:34;23.37;;;13.93;;
20080;SDS011;10200;49.232;9.222;2023-12-04T01:19:01;24.23;;;14.30;;
20080;SDS011;10200;49.232;9.222;2023-12-04T01:21:27;26.87;;;14.90;;
20080;SDS011;10200;49.232;9.222;2023-12-04T01:23:52;25.37;;;13.83;;
20080;SDS011;10200;49.232;9.222;2023-12-04T01:26:18;22.47;;;13.33;;
20080;SDS011;10200;49.232;9.222;2023-12-04T01:28:44;18.77;;;12.50;;
20080;SDS011;10200;49.232;9.222;2023-12-04T01:31:11;22.57;;;13.00;;
20080;SDS011;10200;49.232;9.222;2023-12-04T01:33:37;24.83;;;14.40;;
20080;SDS011;10200;49.232;9.222;2023-12-04T01:36:02;20.77;;;13.23;;
20080;SDS011;10200;49.232;9.222;2023-12-04T01:38:28;23.97;;;13.73;;
20080;SDS011;10200;49.232;9.222;2023-12-04T01:40:54;22.20;;;14.27;;
20080;SDS011;10200;49.232;9.222;2023-12-04T01:43:19;21.93;;;13.77;;
20080;SDS011;10200;49.232;9.222;2023-12-04T01:45:45;23.83;;;13.00;;
20080;SDS011;10200;49.232;9.222;2023-12-04T01:48:11;21.57;;;12.80;;
20080;SDS011;10200;49.232;9.222;2023-12-04T01:50:39;21.90;;;14.03;;
20080;SDS011;10200;49.232;9.222;2023-12-04T01:53:05;20.30;;;12.50;;
20080;SDS011;10200;49.232;9.222;2023-12-04T01:55:31;23.47;;;13.43;;
20080;SDS011;10200;49.232;9.222;2023-12-04T01:57:57;20.17;;;12.50;;
20080;SDS011;10200;49.232;9.222;2023-12-04T02:00:24;21.53;;;13.77;;
20080;SDS011;10200;49.232;9.222;2023-12-04T02:02:50;23.03;;;13.63;;
20080;SDS011;10200;49.232;9.222;2023-12-04T02:05:16;22.67;;;12.83;;
20080;SDS011;10200;49.232;9.222;2023-12-04T02:07:43;24.67;;;13.73;;
20080;SDS011;10200;49.232;9.222;2023-12-04T02:10:09;22.83;;;13.60;;
20080;SDS011;10200;49.232;9.222;2023-12-04T02:12:35;18.43;;;11.63;;
20080;SDS011;10200;49.232;9.222;2023-12-04T02:15:02;21.53;;;13.43;;
20080;SDS011;10200;49.232;9.222;2023-12-04T02:17:28;18.67;;;12.00;;
20080;SDS011;10200;49.232;9.222;2023-12-04T02:19:54;22.37;;;12.90;;
20080;SDS011;10200;49.232;9.222;2023-12-04T02:22:20;25.53;;;13.93;;
20080;SDS011;10200;49.232;9.222;2023-12-04T02:24:46;21.43;;;12.30;;
20080;SDS011;10200;49.232;9.222;2023-12-04T02:27:17;23.77;;;14.27;;
20080;SDS011;10200;49.232;9.222;2023-12-04T02:29:47;22.57;;;13.77;;
20080;SDS011;10200;49.232;9.222;2023-12-04T02:32:17;20.13;;;12.47;;
20080;SDS011;10200;49.232;9.222;2023-12-04T02:34:44;20.73;;;12.00;;
20080;SDS011;10200;49.232;9.222;2023-12-04T02:37:14;22.10;;;12.57;;
20080;SDS011;10200;49.232;9.222;2023-12-04T02:39:41;20.13;;;11.60;;
20080;SDS011;10200;49.232;9.222;2023-12-04T02:42:07;21.37;;;13.30;;
20080;SDS011;10200;49.232;9.222;2023-12-04T02:44:33;20.67;;;12.40;;
20080;SDS011;10200;49.232;9.222;2023-12-04T02:46:59;21.27;;;13.57;;
20080;SDS011;10200;49.232;9.222;2023-12-04T02:49:25;20.47;;;12.93;;
20080;SDS011;10200;49.232;9.222;2023-12-04T02:51:51;20.10;;;13.40;;
20080;SDS011;10200;49.232;9.222;2023-12-04T02:54:17;22.07;;;13.20;;
20080;SDS011;10200;49.232;9.222;2023-12-04T02:56:42;22.27;;;12.73;;
20080;SDS011;10200;49.232;9.222;2023-12-04T02:59:08;20.60;;;12.93;;
20080;SDS011;10200;49.232;9.222;2023-12-04T03:01:33;23.93;;;14.00;;
20080;SDS011;10200;49.232;9.222;2023-12-04T03:03:59;23.40;;;14.23;;
20080;SDS011;10200;49.232;9.222;2023-12-04T03:06:25;20.43;;;12.70;;
20080;SDS011;10200;49.232;9.222;2023-12-04T03:08:51;24.37;;;12.80;;
20080;SDS011;10200;49.232;9.222;2023-12-04T03:11:16;24.07;;;14.97;;
20080;SDS011;10200;49.232;9.222;2023-12-04T03:13:42;22.37;;;13.50;;
20080;SDS011;10200;49.232;9.222;2023-12-04T03:16:18;25.60;;;13.47;;
20080;SDS011;10200;49.232;9.222;2023-12-04T03:18:44;20.97;;;12.53;;
20080;SDS011;10200;49.232;9.222;2023-12-04T03:21:10;24.17;;;13.23;;
20080;SDS011;10200;49.232;9.222;2023-12-04T03:23:37;21.70;;;11.70;;
20080;SDS011;10200;49.232;9.222;2023-12-04T03:26:03;21.03;;;12.17;;
20080;SDS011;10200;49.232;9.222;2023-12-04T03:28:28;22.23;;;12.47;;
20080;SDS011;10200;49.232;9.222;2023-12-04T03:30:54;20.23;;;11.97;;
20080;SDS011;10200;49.232;9.222;2023-12-04T03:33:20;20.97;;;12.40;;
20080;SDS011;10200;49.232;9.222;2023-12-04T03:35:46;19.50;;;11.93;;
20080;SDS011;10200;49.232;9.222;2023-12-04T03:38:12;19.50;;;11.60;;
20080;SDS011;10200;49.232;9.222;2023-12-04T03:40:37;17.63;;;11.37;;
20080;SDS011;10200;49.232;9.222;2023-12-04T03:43:03;21.83;;;11.87;;
20080;SDS011;10200;49.232;9.222;2023-12-04T03:45:29;23.73;;;12.30;;
20080;SDS011;10200;49.232;9.222;2023-12-04T03:47:54;22.77;;;11.70;;
20080;SDS011;10200;49.232;9.222;2023-12-04T03:50:20;20.73;;;12.80;;
20080;SDS011;10200;49.232;9.222;2023-12-04T03:52:46;18.27;;;12.10;;
20080;SDS011;10200;49.232;9.222;2023-12-04T03:55:11;18.70;;;11.03;;
20080;SDS011;10200;49.232;9.222;2023-12-04T03:57:37;19.63;;;11.30;;
20080;SDS011;10200;49.232;9.222;2023-12-04T04:00:03;18.73;;;11.30;;
20080;SDS011;10200;49.232;9.222;2023-12-04T04:02:34;20.70;;;12.57;;
20080;SDS011;10200;49.232;9.222;2023-12-04T04:05:02;20.27;;;11.97;;
20080;SDS011;10200;49.232;9.222;2023-12-04T04:07:27;18.37;;;12.13;;
20080;SDS011;10200;49.232;9.222;2023-12-04T04:09:53;17.73;;;11.03;;
20080;SDS011;10200;49.232;9.222;2023-12-04T04:12:19;19.40;;;11.60;;
20080;SDS011;10200;49.232;9.222;2023-12-04T04:14:44;18.30;;;11.00;;
20080;SDS011;10200;49.232;9.222;2023-12-04T04:17:10;18.07;;;11.30;;
20080;SDS011;10200;49.232;9.222;2023-12-04T04:19:36;16.93;;;10.47;;
20080;SDS011;10200;49.232;9.222;2023-12-04T04:22:01;20.87;;;11.90;;
20080;SDS011;10200;49.232;9.222;2023-12-04T04:24:29;20.80;;;12.20;;
20080;SDS011;10200;49.232;9.222;2023-12-04T04:27:00;17.40;;;11.80;;
20080;SDS011;10200;49.232;9.222;2023-12-04T04:29:25;20.43;;;12.27;;
20080;SDS011;10200;49.232;9.222;2023-12-04T04:31:51;21.47;;;12.43;;
20080;SDS011;10200;49.232;9.222;2023-12-04T04:34:16;17.70;;;12.13;;
20080;SDS011;10200;49.232;9.222;2023-12-04T04:36:42;17.10;;;11.27;;
20080;SDS011;10200;49.232;9.222;2023-12-04T04:39:09;18.17;;;11.67;;
20080;SDS011;10200;49.232;9.222;2023-12-04T04:41:36;17.43;;;11.43;;
20080;SDS011;10200;49.232;9.222;2023-12-04T04:44:02;18.80;;;11.37;;
20080;SDS011;10200;49.232;9.222;2023-12-04T04:46:28;17.50;;;11.50;;
20080;SDS011;10200;49.232;9.222;2023-12-04T04:48:54;17.70;;;11.30;;
20080;SDS011;10200;49.232;9.222;2023-12-04T04:51:19;19.80;;;12.60;;
20080;SDS011;10200;49.232;9.222;2023-12-04T04:53:45;16.70;;;10.53;;
20080;SDS011;10200;49.232;9.222;2023-12-04T04:56:10;21.60;;;12.13;;
20080;SDS011;10200;49.232;9.222;2023-12-04T04:58:36;15.73;;;10.87;;
20080;SDS011;10200;49.232;9.222;2023-12-04T05:01:04;15.43;;;10.20;;
20080;SDS011;10200;49.232;9.222;2023-12-04T05:03:31;17.57;;;11.57;;
20080;SDS011;10200;49.232;9.222;2023-12-04T05:05:56;22.90;;;12.93;;
20080;SDS011;10200;49.232;9.222;2023-12-04T05:08:22;16.43;;;10.80;;
20080;SDS011;10200;49.232;9.222;2023-12-04T05:10:47;19.43;;;12.13;;
20080;SDS011;10200;49.232;9.222;2023-12-04T05:13:14;18.97;;;12.13;;
20080;SDS011;10200;49.232;9.222;2023-12-04T05:15:40;20.63;;;11.73;;
20080;SDS011;10200;49.232;9.222;2023-12-04T05:18:06;18.13;;;11.63;;
20080;SDS011;10200;49.232;9.222;2023-12-04T05:20:31;15.90;;;10.33;;
20080;SDS011;10200;49.232;9.222;2023-12-04T05:22:57;17.23;;;10.77;;
20080;SDS011;10200;49.232;9.222;2023-12-04T05:25:23;19.60;;;11.53;;
20080;SDS011;10200;49.232;9.222;2023-12-04T05:27:48;17.20;;;11.37;;
20080;SDS011;10200;49.232;9.222;2023-12-04T05:30:14;13.47;;;9.10;;
20080;SDS011;10200;49.232;9.222;2023-12-04T05:32:41;16.43;;;10.80;;
20080;SDS011;10200;49.232;9.222;2023-12-04T05:35:06;15.47;;;10.60;;
20080;SDS011;10200;49.232;9.222;2023-12-04T05:37:32;18.87;;;11.27;;
20080;SDS011;10200;49.232;9.222;2023-12-04T05:39:58;18.13;;;10.67;;
20080;SDS011;10200;49.232;9.222;2023-12-04T05:42:24;19.53;;;11.00;;
20080;SDS011;10200;49.232;9.222;2023-12-04T05:44:49;18.63;;;11.73;;
20080;SDS011;10200;49.232;9.222;2023-12-04T05:47:20;18.80;;;11.37;;
20080;SDS011;10200;49.232;9.222;2023-12-04T05:49:46;16.43;;;10.40;;
20080;SDS011;10200;49.232;9.222;2023-12-04T05:52:12;16.87;;;10.57;;
20080;SDS011;10200;49.232;9.222;2023-12-04T05:54:37;18.47;;;11.27;;
20080;SDS011;10200;49.232;9.222;2023-12-04T05:57:03;18.77;;;12.03;;
20080;SDS011;10200;49.232;9.222;2023-12-04T05:59:29;19.13;;;11.80;;
20080;SDS011;10200;49.232;9.222;2023-12-04T06:01:55;16.97;;;11.00;;
20080;SDS011;10200;49.232;9.222;2023-12-04T06:04:20;18.43;;;11.10;;
20080;SDS011;10200;49.232;9.222;2023-12-04T06:06:46;16.13;;;10.90;;
20080;SDS011;10200;49.232;9.222;2023-12-04T06:09:12;15.73;;;10.83;;
20080;SDS011;10200;49.232;9.222;2023-12-04T06:11:41;16.53;;;11.17;;
20080;SDS011;10200;49.232;9.222;2023-12-04T06:14:06;17.67;;;10.80;;
20080;SDS011;10200;49.232;9.222;2023-12-04T06:16:32;17.00;;;10.90;;
20080;SDS011;10200;49.232;9.222;2023-12-04T06:19:01;18.63;;;11.67;;
20080;SDS011;10200;49.232;9.222;2023-12-04T06:21:28;17.33;;;11.73;;
20080;SDS011;10200;49.232;9.222;2023-12-04T06:23:53;18.97;;;12.60;;
20080;SDS011;10200;49.232;9.222;2023-12-04T06:26:19;18.63;;;12.73;;
20080;SDS011;10200;49.232;9.222;2023-12-04T06:28:45;14.30;;;10.77;;
20080;SDS011;10200;49.232;9.222;2023-12-04T06:31:11;15.93;;;10.70;;
20080;SDS011;10200;49.232;9.222;2023-12-04T06:33:37;15.03;;;10.20;;
20080;SDS011;10200;49.232;9.222;2023-12-04T06:36:04;16.07;;;10.73;;
20080;SDS011;10200;49.232;9.222;2023-12-04T06:38:31;14.73;;;9.83;;
20080;SDS011;10200;49.232;9.222;2023-12-04T06:41:01;17.87;;;11.03;;
20080;SDS011;10200;49.232;9.222;2023-12-04T06:43:27;18.30;;;9.93;;
20080;SDS011;10200;49.232;9.222;2023-12-04T06:45:53;16.77;;;11.30;;
20080;SDS011;10200;49.232;9.222;2023-12-04T06:48:22;13.17;;;9.30;;
20080;SDS011;10200;49.232;9.222;2023-12-04T06:50:48;17.90;;;10.77;;
20080;SDS011;10200;49.232;9.222;2023-12-04T06:53:13;15.93;;;10.53;;
20080;SDS011;10200;49.232;9.222;2023-12-04T06:55:39;16.00;;;10.47;;
20080;SDS011;10200;49.232;9.222;2023-12-04T06:58:06;15.90;;;9.80;;
20080;SDS011;10200;49.232;9.222;2023-12-04T07:00:32;15.53;;;9.97;;
20080;SDS011;10200;49.232;9.222;2023-12-04T07:02:58;15.60;;;9.77;;
20080;SDS011;10200;49.232;9.222;2023-12-04T07:05:23;16.47;;;9.73;;
20080;SDS011;10200;49.232;9.222;2023-12-04T07:07:50;17.20;;;10.43;;
20080;SDS011;10200;49.232;9.222;2023-12-04T07:10:15;17.30;;;11.17;;
20080;SDS011;10200;49.232;9.222;2023-12-04T07:12:41;16.60;;;11.00;;
20080;SDS011;10200;49.232;9.222;2023-12-04T07:15:08;20.37;;;11.53;;
20080;SDS011;10200;49.232;9.222;2023-12-04T07:17:36;29.13;;;13.03;;
20080;SDS011;10200;49.232;9.222;2023-12-04T07:20:01;20.50;;;12.73;;
20080;SDS011;10200;49.232;9.222;2023-12-04T07:22:27;19.20;;;11.80;;
20080;SDS011;10200;49.232;9.222;2023-12-04T07:24:54;22.20;;;12.43;;
20080;SDS011;10200;49.232;9.222;2023-12-04T07:27:20;21.47;;;13.40;;
20080;SDS011;10200;49.232;9.222;2023-12-04T07:29:46;19.20;;;12.93;;
20080;SDS011;10200;49.232;9.222;2023-12-04T07:32:11;21.37;;;12.97;;
20080;SDS011;10200;49.232;9.222;2023-12-04T07:34:37;16.53;;;11.50;;
20080;SDS011;10200;49.232;9.222;2023-12-04T07:37:07;15.43;;;10.57;;
20080;SDS011;10200;49.232;9.222;2023-12-04T07:39:33;18.07;;;10.47;;
20080;SDS011;10200;49.232;9.222;2023-12-04T07:41:59;16.73;;;9.80;;
20080;SDS011;10200;49.232;9.222;2023-12-04T07:44:24;16.70;;;10.50;;
20080;SDS011;10200;49.232;9.222;2023-12-04T07:46:50;13.77;;;9.60;;
20080;SDS011;10200;49.232;9.222;2023-12-04T07:49:16;16.93;;;9.90;;
20080;SDS011;10200;49.232;9.222;2023-12-04T07:51:42;12.57;;;9.43;;
20080;SDS011;10200;49.232;9.222;2023-12-04T07:54:07;15.10;;;9.33;;
20080;SDS011;10200;49.232;9.222;2023-12-04T07:56:33;15.70;;;10.60;;
20080;SDS011;10200;49.232;9.222;2023-12-04T07:58:59;20.63;;;11.77;;
20080;SDS011;10200;49.232;9.222;2023-12-04T08:01:24;15.43;;;10.10;;
20080;SDS011;10200;49.232;9.222;2023-12-04T08:03:50;14.47;;;9.83;;
20080;SDS011;10200;49.232;9.222;2023-12-04T08:06:16;15.50;;;9.87;;
20080;SDS011;10200;49.232;9.222;2023-12-04T08:08:44;16.33;;;9.97;;
20080;SDS011;10200;49.232;9.222;2023-12-04T08:11:10;14.13;;;9.23;;
20080;SDS011;10200;49.232;9.222;2023-12-04T08:13:36;14.27;;;9.27;;
20080;SDS011;10200;49.232;9.222;2023-12-04T08:16:03;13.97;;;9.23;;
20080;SDS011;10200;49.232;9.222;2023-12-04T08:18:38;13.53;;;8.40;;
20080;SDS011;10200;49.232;9.222;2023-12-04T08:21:06;12.33;;;8.70;;
20080;SDS011;10200;49.232;9.222;2023-12-04T08:23:33;16.07;;;9.70;;
20080;SDS011;10200;49.232;9.222;2023-12-04T08:25:58;13.13;;;8.87;;
20080;SDS011;10200;49.232;9.222;2023-12-04T08:28:24;16.60;;;9.63;;
20080;SDS011;10200;49.232;9.222;2023-12-04T08:30:51;11.77;;;7.97;;
20080;SDS011;10200;49.232;9.222;2023-12-04T08:33:17;15.37;;;8.93;;
20080;SDS011;10200;49.232;9.222;2023-12-04T08:35:45;13.63;;;8.73;;
20080;SDS011;10200;49.232;9.222;2023-12-04T08:38:12;13.93;;;9.13;;
20080;SDS011;10200;49.232;9.222;2023-12-04T08:40:38;13.67;;;8.00;;
20080;SDS011;10200;49.232;9.222;2023-12-04T08:43:04;13.23;;;8.23;;
20080;SDS011;10200;49.232;9.222;2023-12-04T08:45:30;12.73;;;7.90;;
20080;SDS011;10200;49.232;9.222;2023-12-04T08:47:56;12.60;;;8.20;;
20080;SDS011;10200;49.232;9.222;2023-12-04T08:50:22;11.80;;;8.37;;
20080;SDS011;10200;49.232;9.222;2023-12-04T08:52:47;11.97;;;8.07;;
20080;SDS011;10200;49.232;9.222;2023-12-04T08:55:13;11.70;;;8.13;;
20080;SDS011;10200;49.232;9.222;2023-12-04T08:57:39;12.77;;;7.97;;
20080;SDS011;10200;49.232;9.222;2023-12-04T09:00:04;10.53;;;7.50;;
20080;SDS011;10200;49.232;9.222;2023-12-04T09:02:30;11.40;;;8.27;;
20080;SDS011;10200;49.232;9.222;2023-12-04T09:04:56;11.63;;;7.83;;
20080;SDS011;10200;49.232;9.222;2023-12-04T09:07:22;13.37;;;8.30;;
20080;SDS011;10200;49.232;9.222;2023-12-04T09:09:50;13.13;;;7.40;;
20080;SDS011;10200;49.232;9.222;2023-12-04T09:12:16;12.53;;;8.40;;
20080;SDS011;10200;49.232;9.222;2023-12-04T09:14:48;11.03;;;6.73;;
20080;SDS011;10200;49.232;9.222;2023-12-04T09:17:14;10.57;;;7.30;;
20080;SDS011;10200;49.232;9.222;2023-12-04T09:19:41;11.00;;;7.37;;
20080;SDS011;10200;49.232;9.222;2023-12-04T09:22:07;11.70;;;7.93;;
20080;SDS011;10200;49.232;9.222;2023-12-04T09:24:33;12.63;;;8.10;;
20080;SDS011;10200;49.232;9.222;2023-12-04T09:26:59;12.20;;;8.23;;
20080;SDS011;10200;49.232;9.222;2023-12-04T09:29:24;11.83;;;7.73;;
20080;SDS011;10200;49.232;9.222;2023-12-04T09:31:51;12.80;;;8.10;;
20080;SDS011;10200;49.232;9.222;2023-12-04T09:34:17;10.67;;;7.57;;
20080;SDS011;10200;49.232;9.222;2023-12-04T09:36:43;12.23;;;7.90;;
20080;SDS011;10200;49.232;9.222;2023-12-04T09:39:09;13.17;;;7.90;;
20080;SDS011;10200;49.232;9.222;2023-12-04T09:41:35;13.90;;;8.83;;
20080;SDS011;10200;49.232;9.222;2023-12-04T09:44:02;13.03;;;7.63;;
20080;SDS011;10200;49.232;9.222;2023-12-04T09:46:29;13.70;;;8.30;;
20080;SDS011;10200;49.232;9.222;2023-12-04T09:48:57;15.43;;;8.70;;
20080;SDS011;10200;49.232;9.222;2023-12-04T09:51:23;13.77;;;8.23;;
20080;SDS011;10200;49.232;9.222;2023-12-04T09:53:50;15.27;;;9.07;;
20080;SDS011;10200;49.232;9.222;2023-12-04T09:56:17;14.53;;;9.63;;
20080;SDS011;10200;49.232;9.222;2023-12-04T09:58:44;13.00;;;8.47;;
20080;SDS011;10200;49.232;9.222;2023-12-04T10:01:15;14.00;;;8.57;;
20080;SDS011;10200;49.232;9.222;2023-12-04T10:03:41;12.43;;;8.37;;
20080;SDS011;10200;49.232;9.222;2023-12-04T10:06:07;13.30;;;8.67;;
20080;SDS011;10200;49.232;9.222;2023-12-04T10:08:34;13.13;;;9.33;;
20080;SDS011;10200;49.232;9.222;2023-12-04T10:11:00;13.03;;;8.33;;
20080;SDS011;10200;49.232;9.222;2023-12-04T10:13:26;12.50;;;8.07;;
20080;SDS011;10200;49.232;9.222;2023-12-04T10:15:52;12.77;;;8.73;;
20080;SDS011;10200;49.232;9.222;2023-12-04T10:18:27;18.73;;;8.37;;
20080;SDS011;10200;49.232;9.222;2023-12-04T10:20:55;19.40;;;9.30;;
20080;SDS011;10200;49.232;9.222;2023-12-04T10:23:22;14.13;;;8.63;;
20080;SDS011;10200;49.232;9.222;2023-12-04T10:26:01;15.03;;;9.20;;
20080;SDS011;10200;49.232;9.222;2023-12-04T10:28:28;13.53;;;9.20;;
20080;SDS011;10200;49.232;9.222;2023-12-04T10:30:55;14.30;;;8.43;;
20080;SDS011;10200;49.232;9.222;2023-12-04T10:33:20;15.37;;;8.70;;
20080;SDS011;10200;49.232;9.222;2023-12-04T10:35:50;13.37;;;8.73;;
20080;SDS011;10200;49.232;9.222;2023-12-04T10:38:17;17.10;;;10.07;;
20080;SDS011;10200;49.232;9.222;2023-12-04T10:40:43;15.87;;;10.20;;
20080;SDS011;10200;49.232;9.222;2023-12-04T10:43:10;15.47;;;9.27;;
20080;SDS011;10200;49.232;9.222;2023-12-04T10:45:47;12.23;;;8.13;;
20080;SDS011;10200;49.232;9.222;2023-12-04T10:48:14;14.57;;;8.67;;
20080;SDS011;10200;49.232;9.222;2023-12-04T10:50:50;14.47;;;9.17;;
20080;SDS011;10200;49.232;9.222;2023-12-04T10:53:18;16.37;;;9.90;;
20080;SDS011;10200;49.232;9.222;2023-12-04T10:55:46;15.17;;;8.60;;
20080;SDS011;10200;49.232;9.222;2023-12-04T10:58:16;14.67;;;9.13;;
20080;SDS011;10200;49.232;9.222;2023-12-04T11:00:45;14.80;;;9.30;;
20080;SDS011;10200;49.232;9.222;2023-12-04T11:03:14;15.93;;;10.43;;
20080;SDS011;10200;49.232;9.222;2023-12-04T11:05:48;13.87;;;9.00;;
20080;SDS011;10200;49.232;9.222;2023-12-04T11:08:19;13.43;;;9.70;;
20080;SDS011;10200;49.232;9.222;2023-12-04T11:11:08;20.73;;;12.43;;
20080;SDS011;10200;49.232;9.222;2023-12-04T11:13:37;18.70;;;10.37;;
20080;SDS011;10200;49.232;9.222;2023-12-04T11:18:51;17.10;;;10.33;;
20080;SDS011;10200;49.232;9.222;2023-12-04T11:21:20;20.90;;;11.23;;
20080;SDS011;10200;49.232;9.222;2023-12-04T11:23:46;15.67;;;10.30;;
20080;SDS011;10200;49.232;9.222;2023-12-04T11:26:13;15.97;;;10.80;;
20080;SDS011;10200;49.232;9.222;2023-12-04T11:28:40;18.33;;;10.37;;
20080;SDS011;10200;49.232;9.222;2023-12-04T11:31:08;15.23;;;9.87;;
20080;SDS011;10200;49.232;9.222;2023-12-04T11:33:38;17.20;;;10.13;;
20080;SDS011;10200;49.232;9.222;2023-12-04T11:36:11;16.23;;;10.40;;
20080;SDS011;10200;49.232;9.222;2023-12-04T11:38:38;14.47;;;9.60;;
20080;SDS011;10200;49.232;9.222;2023-12-04T11:41:21;19.83;;;9.57;;
20080;SDS011;10200;49.232;9.222;2023-12-04T11:43:49;15.90;;;10.47;;
20080;SDS011;10200;49.232;9.222;2023-12-04T11:46:20;20.33;;;9.97;;
20080;SDS011;10200;49.232;9.222;2023-12-04T11:48:55;16.03;;;9.80;;
20080;SDS011;10200;49.232;9.222;2023-12-04T11:54:09;18.63;;;10.20;;
20080;SDS011;10200;49.232;9.222;2023-12-04T11:56:35;15.33;;;9.53;;
20080;SDS011;10200;49.232;9.222;2023-12-04T11:59:07;17.30;;;10.53;;
20080;SDS011;10200;49.232;9.222;2023-12-04T12:01:37;17.13;;;10.23;;
20080;SDS011;10200;49.232;9.222;2023-12-04T12:04:07;27.23;;;15.90;;
20080;SDS011;10200;49.232;9.222;2023-12-04T12:06:35;23.13;;;13.83;;
20080;SDS011;10200;49.232;9.222;2023-12-04T12:09:01;20.93;;;12.50;;
20080;SDS011;10200;49.232;9.222;2023-12-04T12:11:27;17.63;;;11.47;;
20080;SDS011;10200;49.232;9.222;2023-12-04T12:13:53;17.30;;;10.67;;
20080;SDS011;10200;49.232;9.222;2023-12-04T12:16:19;15.43;;;9.87;;
20080;SDS011;10200;49.232;9.222;2023-12-04T12:18:47;17.53;;;9.80;;
20080;SDS011;10200;49.232;9.222;2023-12-04T12:21:14;13.70;;;9.33;;
20080;SDS011;10200;49.232;9.222;2023-12-04T12:23:40;15.87;;;9.17;;
20080;SDS011;10200;49.232;9.222;2023-12-04T12:26:06;17.13;;;10.87;;
20080;SDS011;10200;49.232;9.222;2023-12-04T12:28:34;12.77;;;9.30;;
20080;SDS011;10200;49.232;9.222;2023-12-04T12:31:03;16.33;;;9.63;;
20080;SDS011;10200;49.232;9.222;2023-12-04T12:33:29;18.33;;;10.43;;
20080;SDS011;10200;49.232;9.222;2023-12-04T12:35:57;15.50;;;10.37;;
20080;SDS011;10200;49.232;9.222;2023-12-04T12:38:23;16.87;;;10.33;;
20080;SDS011;10200;49.232;9.222;2023-12-04T12:40:50;18.37;;;10.57;;
20080;SDS011;10200;49.232;9.222;2023-12-04T12:43:15;17.03;;;11.63;;
20080;SDS011;10200;49.232;9.222;2023-12-04T12:45:46;17.67;;;11.07;;
20080;SDS011;10200;49.232;9.222;2023-12-04T12:48:15;16.00;;;11.03;;
20080;SDS011;10200;49.232;9.222;2023-12-04T12:50:42;16.90;;;11.27;;
20080;SDS011;10200;49.232;9.222;2023-12-04T12:53:10;15.47;;;10.50;;
20080;SDS011;10200;49.232;9.222;2023-12-04T12:55:40;17.40;;;11.07;;
20080;SDS011;10200;49.232;9.222;2023-12-04T12:58:08;19.10;;;12.37;;
20080;SDS011;10200;49.232;9.222;2023-12-04T13:00:34;17.20;;;11.67;;
20080;SDS011;10200;49.232;9.222;2023-12-04T13:03:01;19.20;;;11.53;;
20080;SDS011;10200;49.232;9.222;2023-12-04T13:05:27;20.47;;;11.30;;
20080;SDS011;10200;49.232;9.222;2023-12-04T13:07:52;22.13;;;12.13;;
20080;SDS011;10200;49.232;9.222;2023-12-04T13:10:20;19.90;;;12.27;;
20080;SDS011;10200;49.232;9.222;2023-12-04T13:12:46;18.57;;;10.93;;
20080;SDS011;10200;49.232;9.222;2023-12-04T13:15:12;17.47;;;11.77;;
20080;SDS011;10200;49.232;9.222;2023-12-04T13:17:37;18.37;;;11.40;;
20080;SDS011;10200;49.232;9.222;2023-12-04T13:20:03;20.50;;;13.13;;
20080;SDS011;10200;49.232;9.222;2023-12-04T13:22:33;18.53;;;12.17;;
20080;SDS011;10200;49.232;9.222;2023-12-04T13:24:59;17.27;;;11.20;;
20080;SDS011;10200;49.232;9.222;2023-12-04T13:27:27;19.33;;;12.37;;
20080;SDS011;10200;49.232;9.222;2023-12-04T13:29:53;17.80;;;11.87;;
20080;SDS011;10200;49.232;9.222;2023-12-04T13:32:19;18.97;;;11.83;;
20080;SDS011;10200;49.232;9.222;2023-12-04T13:34:45;18.37;;;11.53;;
20080;SDS011;10200;49.232;9.222;2023-12-04T13:37:11;19.70;;;12.63;;
20080;SDS011;10200;49.232;9.222;2023-12-04T13:39:37;22.10;;;11.77;;
20080;SDS011;10200;49.232;9.222;2023-12-04T13:42:22;19.40;;;12.03;;
20080;SDS011;10200;49.232;9.222;2023-12-04T13:45:08;19.83;;;11.10;;
20080;SDS011;10200;49.232;9.222;2023-12-04T13:47:34;20.10;;;11.97;;
20080;SDS011;10200;49.232;9.222;2023-12-04T13:50:01;20.73;;;12.90;;
20080;SDS011;10200;49.232;9.222;2023-12-04T13:52:27;19.80;;;12.67;;
20080;SDS011;10200;49.232;9.222;2023-12-04T13:54:57;23.87;;;13.83;;
20080;SDS011;10200;49.232;9.222;2023-12-04T13:57:23;19.60;;;13.73;;
20080;SDS011;10200;49.232;9.222;2023-12-04T13:59:57;18.07;;;11.77;;
20080;SDS011;10200;49.232;9.222;2023-12-04T14:02:23;18.03;;;12.30;;
20080;SDS011;10200;49.232;9.222;2023-12-04T14:04:48;19.50;;;12.63;;
20080;SDS011;10200;49.232;9.222;2023-12-04T14:07:14;18.87;;;12.27;;
20080;SDS011;10200;49.232;9.222;2023-12-04T14:09:40;20.40;;;12.93;;
20080;SDS011;10200;49.232;9.222;2023-12-04T14:12:07;21.07;;;12.67;;
20080;SDS011;10200;49.232;9.222;2023-12-04T14:14:33;21.80;;;13.10;;
20080;SDS011;10200;49.232;9.222;2023-12-04T14:17:00;19.90;;;13.00;;
20080;SDS011;10200;49.232;9.222;2023-12-04T14:19:28;20.03;;;12.80;;
20080;SDS011;10200;49.232;9.222;2023-12-04T14:21:54;20.30;;;12.70;;
20080;SDS011;10200;49.232;9.222;2023-12-04T14:24:19;20.23;;;13.13;;
20080;SDS011;10200;49.232;9.222;2023-12-04T14:26:46;20.10;;;12.97;;
20080;SDS011;10200;49.232;9.222;2023-12-04T14:29:16;18.63;;;12.60;;